sensor_id;sensor_type;location;lat;lon;timestamp;P1;durP1;ratioP1;P2;durP2;ratioP2
62796;SDS011;48839;48.546;-4.178;2023-03-01T00:01:21;4.15;;;2.70;;
62796;SDS011;48839;48.546;-4.178;2023-03-01T00:03:47;4.63;;;2.63;;
62796;SDS011;48839;48.546;-4.178;2023-03-01T00:06:14;6.72;;;3.10;;
62796;SDS011;48839;48.546;-4.178;2023-03-01T00:08:40;8.60;;;3.38;;
62796;SDS011;48839;48.546;-4.178;2023-03-01T00:11:23;4.10;;;3.17;;
62796;SDS011;48839;48.546;-4.178;2023-03-01T00:13:50;2.67;;;2.10;;
62796;SDS011;48839;48.546;-4.178;2023-03-01T00:16:18;2.50;;;2.30;;
62796;SDS011;48839;48.546;-4.178;2023-03-01T00:18:44;3.33;;;2.08;;
62796;SDS011;48839;48.546;-4.178;2023-03-01T00:21:11;4.03;;;3.03;;
62796;SDS011;48839;48.546;-4.178;2023-03-01T00:23:37;4.90;;;2.53;;
62796;SDS011;48839;48.546;-4.178;2023-03-01T00:26:08;2.72;;;1.80;;
62796;SDS011;48839;48.546;-4.178;2023-03-01T00:28:34;3.85;;;2.60;;
62796;SDS011;48839;48.546;-4.178;2023-03-01T00:31:08;3.22;;;2.40;;
62796;SDS011;48839;48.546;-4.178;2023-03-01T00:33:34;5.07;;;3.10;;
62796;SDS011;48839;48.546;-4.178;2023-03-01T00:36:00;3.38;;;2.75;;
62796;SDS011;48839;48.546;-4.178;2023-03-01T00:38:26;4.70;;;3.33;;
62796;SDS011;48839;48.546;-4.178;2023-03-01T00:40:52;3.17;;;2.70;;
62796;SDS011;48839;48.546;-4.178;2023-03-01T00:43:18;4.88;;;3.25;;
62796;SDS011;48839;48.546;-4.178;2023-03-01T00:45:44;4.47;;;3.15;;
62796;SDS011;48839;48.546;-4.178;2023-03-01T00:48:10;7.50;;;3.58;;
62796;SDS011;48839;48.546;-4.178;2023-03-01T00:50:36;9.95;;;5.07;;
62796;SDS011;48839;48.546;-4.178;2023-03-01T00:53:02;6.22;;;4.45;;
62796;SDS011;48839;48.546;-4.178;2023-03-01T00:55:29;8.77;;;4.28;;
62796;SDS011;48839;48.546;-4.178;2023-03-01T00:57:55;8.45;;;4.60;;
62796;SDS011;48839;48.546;-4.178;2023-03-01T01:00:21;7.47;;;5.15;;
62796;SDS011;48839;48.546;-4.178;2023-03-01T01:02:47;10.48;;;5.75;;
62796;SDS011;48839;48.546;-4.178;2023-03-01T01:05:14;11.57;;;7.05;;
62796;SDS011;48839;48.546;-4.178;2023-03-01T01:07:46;11.93;;;6.93;;
62796;SDS011;48839;48.546;-4.178;2023-03-01T01:10:12;16.70;;;8.27;;
62796;SDS011;48839;48.546;-4.178;2023-03-01T01:12:42;20.08;;;9.82;;
62796;SDS011;48839;48.546;-4.178;2023-03-01T01:15:08;15.23;;;9.13;;
62796;SDS011;48839;48.546;-4.178;2023-03-01T01:17:37;17.33;;;9.73;;
62796;SDS011;48839;48.546;-4.178;2023-03-01T01:20:03;18.33;;;10.48;;
62796;SDS011;48839;48.546;-4.178;2023-03-01T01:22:29;20.17;;;11.63;;
62796;SDS011;48839;48.546;-4.178;2023-03-01T01:24:55;17.67;;;11.38;;
62796;SDS011;48839;48.546;-4.178;2023-03-01T01:27:21;18.23;;;12.27;;
62796;SDS011;48839;48.546;-4.178;2023-03-01T01:29:47;22.33;;;12.60;;
62796;SDS011;48839;48.546;-4.178;2023-03-01T01:32:13;20.80;;;11.52;;
62796;SDS011;48839;48.546;-4.178;2023-03-01T01:34:39;22.50;;;12.63;;
62796;SDS011;48839;48.546;-4.178;2023-03-01T01:37:05;26.63;;;12.50;;
62796;SDS011;48839;48.546;-4.178;2023-03-01T01:39:33;20.70;;;13.68;;
62796;SDS011;48839;48.546;-4.178;2023-03-01T01:41:59;21.67;;;12.48;;
62796;SDS011;48839;48.546;-4.178;2023-03-01T01:44:26;20.63;;;13.25;;
62796;SDS011;48839;48.546;-4.178;2023-03-01T01:47:06;29.02;;;13.85;;
62796;SDS011;48839;48.546;-4.178;2023-03-01T01:52:16;23.10;;;14.30;;
62796;SDS011;48839;48.546;-4.178;2023-03-01T01:57:13;21.95;;;12.85;;
62796;SDS011;48839;48.546;-4.178;2023-03-01T01:59:40;19.88;;;13.35;;
62796;SDS011;48839;48.546;-4.178;2023-03-01T02:02:08;20.60;;;13.52;;
62796;SDS011;48839;48.546;-4.178;2023-03-01T02:04:34;25.88;;;13.77;;
62796;SDS011;48839;48.546;-4.178;2023-03-01T02:07:06;22.50;;;13.25;;
62796;SDS011;48839;48.546;-4.178;2023-03-01T02:09:33;26.35;;;15.43;;
62796;SDS011;48839;48.546;-4.178;2023-03-01T02:12:00;26.80;;;14.80;;
62796;SDS011;48839;48.546;-4.178;2023-03-01T02:14:26;23.55;;;14.80;;
62796;SDS011;48839;48.546;-4.178;2023-03-01T02:16:53;23.45;;;13.95;;
62796;SDS011;48839;48.546;-4.178;2023-03-01T02:22:11;24.65;;;14.57;;
62796;SDS011;48839;48.546;-4.178;2023-03-01T02:25:24;20.80;;;13.38;;
62796;SDS011;48839;48.546;-4.178;2023-03-01T02:30:26;22.48;;;14.30;;
62796;SDS011;48839;48.546;-4.178;2023-03-01T02:32:53;21.15;;;13.75;;
62796;SDS011;48839;48.546;-4.178;2023-03-01T02:35:27;22.83;;;14.10;;
62796;SDS011;48839;48.546;-4.178;2023-03-01T02:37:54;22.38;;;14.68;;
62796;SDS011;48839;48.546;-4.178;2023-03-01T02:40:22;23.30;;;14.55;;
62796;SDS011;48839;48.546;-4.178;2023-03-01T02:42:53;27.33;;;15.02;;
62796;SDS011;48839;48.546;-4.178;2023-03-01T02:45:20;27.88;;;15.80;;
62796;SDS011;48839;48.546;-4.178;2023-03-01T02:47:46;27.58;;;15.38;;
62796;SDS011;48839;48.546;-4.178;2023-03-01T02:53:13;24.70;;;14.63;;
62796;SDS011;48839;48.546;-4.178;2023-03-01T02:55:41;25.67;;;14.70;;
62796;SDS011;48839;48.546;-4.178;2023-03-01T02:58:07;21.25;;;13.52;;
62796;SDS011;48839;48.546;-4.178;2023-03-01T03:00:36;24.67;;;14.77;;
62796;SDS011;48839;48.546;-4.178;2023-03-01T03:03:05;29.00;;;14.95;;
62796;SDS011;48839;48.546;-4.178;2023-03-01T03:05:31;25.65;;;15.18;;
62796;SDS011;48839;48.546;-4.178;2023-03-01T03:07:58;23.73;;;14.52;;
62796;SDS011;48839;48.546;-4.178;2023-03-01T03:10:26;26.08;;;14.73;;
62796;SDS011;48839;48.546;-4.178;2023-03-01T03:12:56;28.67;;;15.77;;
62796;SDS011;48839;48.546;-4.178;2023-03-01T03:15:23;25.10;;;15.77;;
62796;SDS011;48839;48.546;-4.178;2023-03-01T03:17:50;28.88;;;16.80;;
62796;SDS011;48839;48.546;-4.178;2023-03-01T03:20:17;27.65;;;16.48;;
62796;SDS011;48839;48.546;-4.178;2023-03-01T03:22:47;28.58;;;17.42;;
62796;SDS011;48839;48.546;-4.178;2023-03-01T03:25:13;31.20;;;16.10;;
62796;SDS011;48839;48.546;-4.178;2023-03-01T03:27:40;32.22;;;17.20;;
62796;SDS011;48839;48.546;-4.178;2023-03-01T03:30:08;25.55;;;14.48;;
62796;SDS011;48839;48.546;-4.178;2023-03-01T03:32:44;27.10;;;15.77;;
62796;SDS011;48839;48.546;-4.178;2023-03-01T03:35:17;26.27;;;15.93;;
62796;SDS011;48839;48.546;-4.178;2023-03-01T03:37:44;29.48;;;17.33;;
62796;SDS011;48839;48.546;-4.178;2023-03-01T03:40:29;29.92;;;17.25;;
62796;SDS011;48839;48.546;-4.178;2023-03-01T03:42:55;23.77;;;14.52;;
62796;SDS011;48839;48.546;-4.178;2023-03-01T03:45:21;27.80;;;15.48;;
62796;SDS011;48839;48.546;-4.178;2023-03-01T03:47:47;27.30;;;16.15;;
62796;SDS011;48839;48.546;-4.178;2023-03-01T03:50:15;27.58;;;15.40;;
62796;SDS011;48839;48.546;-4.178;2023-03-01T03:52:41;19.38;;;12.98;;
62796;SDS011;48839;48.546;-4.178;2023-03-01T03:55:08;25.90;;;15.50;;
62796;SDS011;48839;48.546;-4.178;2023-03-01T03:57:35;25.35;;;15.40;;
62796;SDS011;48839;48.546;-4.178;2023-03-01T04:00:01;27.33;;;14.98;;
62796;SDS011;48839;48.546;-4.178;2023-03-01T04:02:29;24.75;;;14.90;;
62796;SDS011;48839;48.546;-4.178;2023-03-01T04:04:55;24.95;;;15.13;;
62796;SDS011;48839;48.546;-4.178;2023-03-01T04:07:21;25.40;;;13.80;;
62796;SDS011;48839;48.546;-4.178;2023-03-01T04:09:47;22.88;;;14.85;;
62796;SDS011;48839;48.546;-4.178;2023-03-01T04:12:13;27.33;;;15.45;;
62796;SDS011;48839;48.546;-4.178;2023-03-01T04:14:45;23.10;;;14.85;;
62796;SDS011;48839;48.546;-4.178;2023-03-01T04:17:11;20.85;;;14.20;;
62796;SDS011;48839;48.546;-4.178;2023-03-01T04:19:37;23.13;;;14.18;;
62796;SDS011;48839;48.546;-4.178;2023-03-01T04:22:03;22.80;;;14.80;;
62796;SDS011;48839;48.546;-4.178;2023-03-01T04:24:34;29.58;;;14.85;;
62796;SDS011;48839;48.546;-4.178;2023-03-01T04:27:01;22.13;;;13.65;;
62796;SDS011;48839;48.546;-4.178;2023-03-01T04:29:27;25.67;;;14.90;;
62796;SDS011;48839;48.546;-4.178;2023-03-01T04:31:53;26.88;;;14.82;;
62796;SDS011;48839;48.546;-4.178;2023-03-01T04:34:19;23.55;;;14.25;;
62796;SDS011;48839;48.546;-4.178;2023-03-01T04:36:45;22.35;;;13.27;;
62796;SDS011;48839;48.546;-4.178;2023-03-01T04:39:11;21.63;;;14.07;;
62796;SDS011;48839;48.546;-4.178;2023-03-01T04:41:37;24.75;;;14.15;;
62796;SDS011;48839;48.546;-4.178;2023-03-01T04:44:04;20.85;;;13.80;;
62796;SDS011;48839;48.546;-4.178;2023-03-01T04:46:30;22.17;;;14.13;;
62796;SDS011;48839;48.546;-4.178;2023-03-01T04:48:56;27.15;;;15.38;;
62796;SDS011;48839;48.546;-4.178;2023-03-01T04:51:22;20.65;;;14.05;;
62796;SDS011;48839;48.546;-4.178;2023-03-01T04:53:48;21.92;;;14.18;;
62796;SDS011;48839;48.546;-4.178;2023-03-01T04:56:15;19.27;;;13.60;;
62796;SDS011;48839;48.546;-4.178;2023-03-01T04:58:42;21.00;;;13.75;;
62796;SDS011;48839;48.546;-4.178;2023-03-01T05:01:13;22.27;;;14.00;;
62796;SDS011;48839;48.546;-4.178;2023-03-01T05:03:43;22.13;;;13.85;;
62796;SDS011;48839;48.546;-4.178;2023-03-01T05:06:10;21.33;;;14.05;;
62796;SDS011;48839;48.546;-4.178;2023-03-01T05:08:36;19.77;;;12.43;;
62796;SDS011;48839;48.546;-4.178;2023-03-01T05:11:03;21.50;;;13.00;;
62796;SDS011;48839;48.546;-4.178;2023-03-01T05:13:29;22.13;;;12.32;;
62796;SDS011;48839;48.546;-4.178;2023-03-01T05:15:59;19.38;;;13.55;;
62796;SDS011;48839;48.546;-4.178;2023-03-01T05:18:26;20.63;;;13.70;;
62796;SDS011;48839;48.546;-4.178;2023-03-01T05:20:53;21.02;;;13.43;;
62796;SDS011;48839;48.546;-4.178;2023-03-01T05:23:21;22.15;;;13.80;;
62796;SDS011;48839;48.546;-4.178;2023-03-01T05:25:47;23.70;;;12.98;;
62796;SDS011;48839;48.546;-4.178;2023-03-01T05:28:14;23.55;;;14.50;;
62796;SDS011;48839;48.546;-4.178;2023-03-01T05:30:40;22.08;;;14.07;;
62796;SDS011;48839;48.546;-4.178;2023-03-01T05:33:07;20.50;;;13.55;;
62796;SDS011;48839;48.546;-4.178;2023-03-01T05:35:39;23.33;;;13.10;;
62796;SDS011;48839;48.546;-4.178;2023-03-01T05:38:06;22.85;;;13.07;;
62796;SDS011;48839;48.546;-4.178;2023-03-01T05:40:32;21.70;;;13.88;;
62796;SDS011;48839;48.546;-4.178;2023-03-01T05:42:59;23.40;;;13.95;;
62796;SDS011;48839;48.546;-4.178;2023-03-01T05:45:25;21.48;;;12.98;;
62796;SDS011;48839;48.546;-4.178;2023-03-01T05:47:52;21.25;;;13.13;;
62796;SDS011;48839;48.546;-4.178;2023-03-01T05:50:21;21.80;;;13.63;;
62796;SDS011;48839;48.546;-4.178;2023-03-01T05:52:48;21.77;;;12.57;;
62796;SDS011;48839;48.546;-4.178;2023-03-01T05:55:15;20.10;;;12.88;;
62796;SDS011;48839;48.546;-4.178;2023-03-01T05:57:41;19.00;;;12.63;;
62796;SDS011;48839;48.546;-4.178;2023-03-01T06:00:08;18.52;;;12.30;;
62796;SDS011;48839;48.546;-4.178;2023-03-01T06:02:34;17.38;;;12.18;;
62796;SDS011;48839;48.546;-4.178;2023-03-01T06:05:00;20.70;;;13.77;;
62796;SDS011;48839;48.546;-4.178;2023-03-01T06:07:27;23.42;;;13.15;;
62796;SDS011;48839;48.546;-4.178;2023-03-01T06:09:53;18.10;;;12.75;;
62796;SDS011;48839;48.546;-4.178;2023-03-01T06:12:19;20.00;;;12.00;;
62796;SDS011;48839;48.546;-4.178;2023-03-01T06:14:45;19.98;;;12.95;;
62796;SDS011;48839;48.546;-4.178;2023-03-01T06:17:12;22.63;;;13.50;;
62796;SDS011;48839;48.546;-4.178;2023-03-01T06:19:38;22.05;;;13.65;;
62796;SDS011;48839;48.546;-4.178;2023-03-01T06:22:04;20.90;;;12.13;;
62796;SDS011;48839;48.546;-4.178;2023-03-01T06:24:30;22.63;;;12.40;;
62796;SDS011;48839;48.546;-4.178;2023-03-01T06:26:57;18.75;;;11.25;;
62796;SDS011;48839;48.546;-4.178;2023-03-01T06:29:23;20.00;;;12.80;;
62796;SDS011;48839;48.546;-4.178;2023-03-01T06:31:49;18.63;;;11.90;;
62796;SDS011;48839;48.546;-4.178;2023-03-01T06:34:15;19.02;;;11.90;;
62796;SDS011;48839;48.546;-4.178;2023-03-01T06:36:41;17.20;;;11.15;;
62796;SDS011;48839;48.546;-4.178;2023-03-01T06:39:07;18.27;;;12.10;;
62796;SDS011;48839;48.546;-4.178;2023-03-01T06:41:34;18.05;;;12.27;;
62796;SDS011;48839;48.546;-4.178;2023-03-01T06:44:00;17.55;;;10.77;;
62796;SDS011;48839;48.546;-4.178;2023-03-01T06:46:26;16.48;;;11.27;;
62796;SDS011;48839;48.546;-4.178;2023-03-01T06:48:52;21.02;;;12.23;;
62796;SDS011;48839;48.546;-4.178;2023-03-01T06:51:17;18.90;;;12.57;;
62796;SDS011;48839;48.546;-4.178;2023-03-01T06:53:45;22.95;;;14.43;;
62796;SDS011;48839;48.546;-4.178;2023-03-01T06:56:11;24.45;;;14.30;;
62796;SDS011;48839;48.546;-4.178;2023-03-01T06:58:37;53.10;;;26.27;;
62796;SDS011;48839;48.546;-4.178;2023-03-01T07:01:06;21.90;;;13.20;;
62796;SDS011;48839;48.546;-4.178;2023-03-01T07:03:33;19.23;;;11.52;;
62796;SDS011;48839;48.546;-4.178;2023-03-01T07:05:59;21.48;;;11.02;;
62796;SDS011;48839;48.546;-4.178;2023-03-01T07:08:25;17.10;;;11.18;;
62796;SDS011;48839;48.546;-4.178;2023-03-01T07:10:57;15.98;;;10.38;;
62796;SDS011;48839;48.546;-4.178;2023-03-01T07:13:23;15.03;;;10.60;;
62796;SDS011;48839;48.546;-4.178;2023-03-01T07:15:49;16.15;;;10.10;;
62796;SDS011;48839;48.546;-4.178;2023-03-01T07:18:15;16.10;;;11.10;;
62796;SDS011;48839;48.546;-4.178;2023-03-01T07:20:42;17.25;;;10.68;;
62796;SDS011;48839;48.546;-4.178;2023-03-01T07:23:08;17.15;;;10.00;;
62796;SDS011;48839;48.546;-4.178;2023-03-01T07:25:34;15.32;;;10.15;;
62796;SDS011;48839;48.546;-4.178;2023-03-01T07:28:00;15.93;;;10.75;;
62796;SDS011;48839;48.546;-4.178;2023-03-01T07:30:26;17.88;;;10.05;;
62796;SDS011;48839;48.546;-4.178;2023-03-01T07:32:53;16.45;;;10.30;;
62796;SDS011;48839;48.546;-4.178;2023-03-01T07:35:20;14.45;;;9.35;;
62796;SDS011;48839;48.546;-4.178;2023-03-01T07:37:46;17.90;;;10.63;;
62796;SDS011;48839;48.546;-4.178;2023-03-01T07:40:12;15.70;;;10.68;;
62796;SDS011;48839;48.546;-4.178;2023-03-01T07:42:38;15.70;;;10.60;;
62796;SDS011;48839;48.546;-4.178;2023-03-01T07:45:05;13.65;;;9.63;;
62796;SDS011;48839;48.546;-4.178;2023-03-01T07:47:31;17.27;;;10.50;;
62796;SDS011;48839;48.546;-4.178;2023-03-01T07:49:57;14.90;;;10.18;;
62796;SDS011;48839;48.546;-4.178;2023-03-01T07:52:24;11.63;;;8.50;;
62796;SDS011;48839;48.546;-4.178;2023-03-01T07:54:50;12.85;;;8.95;;
62796;SDS011;48839;48.546;-4.178;2023-03-01T07:57:16;14.43;;;8.88;;
62796;SDS011;48839;48.546;-4.178;2023-03-01T07:59:42;11.55;;;9.27;;
62796;SDS011;48839;48.546;-4.178;2023-03-01T08:02:08;14.68;;;9.82;;
62796;SDS011;48839;48.546;-4.178;2023-03-01T08:04:34;15.15;;;8.75;;
62796;SDS011;48839;48.546;-4.178;2023-03-01T08:07:00;14.00;;;9.07;;
62796;SDS011;48839;48.546;-4.178;2023-03-01T08:09:26;17.42;;;9.82;;
62796;SDS011;48839;48.546;-4.178;2023-03-01T08:11:52;12.30;;;9.18;;
62796;SDS011;48839;48.546;-4.178;2023-03-01T08:14:19;13.80;;;8.65;;
62796;SDS011;48839;48.546;-4.178;2023-03-01T08:16:45;11.43;;;8.85;;
62796;SDS011;48839;48.546;-4.178;2023-03-01T08:19:14;12.48;;;8.73;;
62796;SDS011;48839;48.546;-4.178;2023-03-01T08:21:40;12.85;;;8.68;;
62796;SDS011;48839;48.546;-4.178;2023-03-01T08:24:06;14.43;;;9.15;;
62796;SDS011;48839;48.546;-4.178;2023-03-01T08:26:33;11.90;;;7.40;;
62796;SDS011;48839;48.546;-4.178;2023-03-01T08:28:59;12.50;;;8.70;;
62796;SDS011;48839;48.546;-4.178;2023-03-01T08:31:26;12.82;;;8.50;;
62796;SDS011;48839;48.546;-4.178;2023-03-01T08:33:54;12.57;;;8.60;;
62796;SDS011;48839;48.546;-4.178;2023-03-01T08:36:24;12.43;;;7.93;;
62796;SDS011;48839;48.546;-4.178;2023-03-01T08:38:51;10.77;;;7.25;;
62796;SDS011;48839;48.546;-4.178;2023-03-01T08:41:17;9.95;;;7.60;;
62796;SDS011;48839;48.546;-4.178;2023-03-01T08:43:43;16.00;;;9.52;;
62796;SDS011;48839;48.546;-4.178;2023-03-01T08:46:10;10.30;;;7.63;;
62796;SDS011;48839;48.546;-4.178;2023-03-01T08:48:36;11.88;;;8.05;;
62796;SDS011;48839;48.546;-4.178;2023-03-01T08:51:12;13.63;;;7.95;;
62796;SDS011;48839;48.546;-4.178;2023-03-01T08:53:39;12.32;;;8.20;;
62796;SDS011;48839;48.546;-4.178;2023-03-01T08:56:05;13.85;;;8.55;;
62796;SDS011;48839;48.546;-4.178;2023-03-01T08:58:31;10.52;;;7.63;;
62796;SDS011;48839;48.546;-4.178;2023-03-01T09:00:57;12.27;;;8.50;;
62796;SDS011;48839;48.546;-4.178;2023-03-01T09:03:24;9.63;;;7.90;;
62796;SDS011;48839;48.546;-4.178;2023-03-01T09:05:50;12.40;;;8.23;;
62796;SDS011;48839;48.546;-4.178;2023-03-01T09:08:17;11.70;;;8.40;;
62796;SDS011;48839;48.546;-4.178;2023-03-01T09:10:43;12.82;;;8.63;;
62796;SDS011;48839;48.546;-4.178;2023-03-01T09:13:09;11.27;;;8.05;;
62796;SDS011;48839;48.546;-4.178;2023-03-01T09:15:38;10.00;;;7.65;;
62796;SDS011;48839;48.546;-4.178;2023-03-01T09:18:05;13.90;;;7.72;;
62796;SDS011;48839;48.546;-4.178;2023-03-01T09:20:31;11.68;;;8.63;;
62796;SDS011;48839;48.546;-4.178;2023-03-01T09:22:58;14.88;;;8.82;;
62796;SDS011;48839;48.546;-4.178;2023-03-01T09:25:24;11.63;;;7.88;;
62796;SDS011;48839;48.546;-4.178;2023-03-01T09:27:51;11.95;;;8.52;;
62796;SDS011;48839;48.546;-4.178;2023-03-01T09:30:17;15.40;;;8.88;;
62796;SDS011;48839;48.546;-4.178;2023-03-01T09:32:43;13.10;;;8.30;;
62796;SDS011;48839;48.546;-4.178;2023-03-01T09:35:10;16.42;;;8.55;;
62796;SDS011;48839;48.546;-4.178;2023-03-01T09:37:36;14.05;;;8.77;;
62796;SDS011;48839;48.546;-4.178;2023-03-01T09:40:03;15.60;;;8.98;;
62796;SDS011;48839;48.546;-4.178;2023-03-01T09:42:32;11.43;;;8.52;;
62796;SDS011;48839;48.546;-4.178;2023-03-01T09:45:06;12.63;;;8.75;;
62796;SDS011;48839;48.546;-4.178;2023-03-01T09:47:37;14.43;;;8.52;;
62796;SDS011;48839;48.546;-4.178;2023-03-01T09:55:08;13.52;;;8.50;;
62796;SDS011;48839;48.546;-4.178;2023-03-01T09:57:36;14.38;;;9.10;;
62796;SDS011;48839;48.546;-4.178;2023-03-01T10:02:55;13.45;;;9.32;;
62796;SDS011;48839;48.546;-4.178;2023-03-01T10:08:33;20.15;;;10.00;;
62796;SDS011;48839;48.546;-4.178;2023-03-01T10:10:54;15.30;;;9.48;;
62796;SDS011;48839;48.546;-4.178;2023-03-01T10:18:40;16.98;;;10.82;;
62796;SDS011;48839;48.546;-4.178;2023-03-01T10:23:40;19.40;;;10.80;;
62796;SDS011;48839;48.546;-4.178;2023-03-01T10:31:01;20.65;;;11.77;;
62796;SDS011;48839;48.546;-4.178;2023-03-01T10:33:27;19.52;;;10.95;;
62796;SDS011;48839;48.546;-4.178;2023-03-01T10:35:54;24.02;;;12.23;;
62796;SDS011;48839;48.546;-4.178;2023-03-01T10:38:20;19.35;;;12.05;;
62796;SDS011;48839;48.546;-4.178;2023-03-01T10:43:15;20.95;;;12.88;;
62796;SDS011;48839;48.546;-4.178;2023-03-01T10:45:41;20.63;;;12.15;;
62796;SDS011;48839;48.546;-4.178;2023-03-01T10:50:34;21.85;;;12.25;;
62796;SDS011;48839;48.546;-4.178;2023-03-01T10:53:03;25.88;;;13.32;;
62796;SDS011;48839;48.546;-4.178;2023-03-01T11:00:47;21.17;;;12.60;;
62796;SDS011;48839;48.546;-4.178;2023-03-01T11:11:07;24.75;;;14.65;;
62796;SDS011;48839;48.546;-4.178;2023-03-01T11:13:33;21.08;;;13.57;;
62796;SDS011;48839;48.546;-4.178;2023-03-01T11:16:06;23.45;;;13.82;;
62796;SDS011;48839;48.546;-4.178;2023-03-01T11:18:35;26.23;;;15.25;;
62796;SDS011;48839;48.546;-4.178;2023-03-01T11:21:01;23.17;;;14.02;;
62796;SDS011;48839;48.546;-4.178;2023-03-01T11:23:28;24.60;;;13.05;;
62796;SDS011;48839;48.546;-4.178;2023-03-01T11:25:57;18.95;;;13.48;;
62796;SDS011;48839;48.546;-4.178;2023-03-01T11:28:24;21.88;;;13.07;;
62796;SDS011;48839;48.546;-4.178;2023-03-01T11:35:53;23.92;;;12.73;;
62796;SDS011;48839;48.546;-4.178;2023-03-01T11:38:22;17.85;;;12.45;;
62796;SDS011;48839;48.546;-4.178;2023-03-01T11:43:20;22.45;;;13.20;;
62796;SDS011;48839;48.546;-4.178;2023-03-01T11:50:46;20.35;;;12.68;;
62796;SDS011;48839;48.546;-4.178;2023-03-01T11:56:27;16.48;;;12.25;;
62796;SDS011;48839;48.546;-4.178;2023-03-01T11:59:10;18.35;;;11.27;;
62796;SDS011;48839;48.546;-4.178;2023-03-01T12:04:17;18.45;;;12.45;;
62796;SDS011;48839;48.546;-4.178;2023-03-01T12:30:51;18.40;;;11.32;;
62796;SDS011;48839;48.546;-4.178;2023-03-01T12:33:28;21.50;;;12.13;;
62796;SDS011;48839;48.546;-4.178;2023-03-01T12:36:03;17.50;;;11.15;;
62796;SDS011;48839;48.546;-4.178;2023-03-01T12:38:37;18.30;;;12.88;;
62796;SDS011;48839;48.546;-4.178;2023-03-01T12:46:06;18.85;;;11.98;;
62796;SDS011;48839;48.546;-4.178;2023-03-01T12:51:23;19.70;;;12.48;;
62796;SDS011;48839;48.546;-4.178;2023-03-01T12:53:51;19.23;;;12.02;;
62796;SDS011;48839;48.546;-4.178;2023-03-01T12:56:23;21.42;;;12.63;;
62796;SDS011;48839;48.546;-4.178;2023-03-01T13:04:28;23.38;;;13.20;;
62796;SDS011;48839;48.546;-4.178;2023-03-01T13:07:04;17.92;;;11.02;;
62796;SDS011;48839;48.546;-4.178;2023-03-01T13:09:36;21.85;;;12.68;;
62796;SDS011;48839;48.546;-4.178;2023-03-01T13:12:41;22.70;;;13.77;;
62796;SDS011;48839;48.546;-4.178;2023-03-01T13:14:50;22.38;;;12.77;;
62796;SDS011;48839;48.546;-4.178;2023-03-01T13:17:41;19.58;;;11.30;;
62796;SDS011;48839;48.546;-4.178;2023-03-01T13:20:11;19.73;;;12.63;;
62796;SDS011;48839;48.546;-4.178;2023-03-01T13:22:37;24.73;;;11.52;;
62796;SDS011;48839;48.546;-4.178;2023-03-01T13:25:16;17.60;;;11.95;;
62796;SDS011;48839;48.546;-4.178;2023-03-01T13:27:43;22.27;;;13.00;;
62796;SDS011;48839;48.546;-4.178;2023-03-01T13:33:07;24.38;;;12.45;;
62796;SDS011;48839;48.546;-4.178;2023-03-01T13:35:41;20.67;;;12.93;;
62796;SDS011;48839;48.546;-4.178;2023-03-01T13:43:28;21.33;;;12.68;;
62796;SDS011;48839;48.546;-4.178;2023-03-01T13:48:22;24.20;;;11.95;;
62796;SDS011;48839;48.546;-4.178;2023-03-01T13:50:54;21.05;;;12.02;;
62796;SDS011;48839;48.546;-4.178;2023-03-01T13:53:22;16.70;;;11.40;;
62796;SDS011;48839;48.546;-4.178;2023-03-01T13:55:50;22.40;;;13.38;;
62796;SDS011;48839;48.546;-4.178;2023-03-01T14:00:45;24.77;;;13.43;;
62796;SDS011;48839;48.546;-4.178;2023-03-01T14:03:12;28.67;;;13.18;;
62796;SDS011;48839;48.546;-4.178;2023-03-01T14:05:40;25.50;;;13.20;;
62796;SDS011;48839;48.546;-4.178;2023-03-01T14:08:18;18.10;;;11.82;;
62796;SDS011;48839;48.546;-4.178;2023-03-01T14:10:49;25.67;;;12.98;;
62796;SDS011;48839;48.546;-4.178;2023-03-01T14:18:41;25.25;;;13.55;;
62796;SDS011;48839;48.546;-4.178;2023-03-01T14:21:12;21.35;;;13.63;;
62796;SDS011;48839;48.546;-4.178;2023-03-01T14:23:39;24.05;;;12.95;;
62796;SDS011;48839;48.546;-4.178;2023-03-01T14:26:07;21.63;;;12.65;;
62796;SDS011;48839;48.546;-4.178;2023-03-01T14:28:34;21.23;;;12.95;;
62796;SDS011;48839;48.546;-4.178;2023-03-01T14:31:05;23.20;;;13.20;;
62796;SDS011;48839;48.546;-4.178;2023-03-01T14:33:54;18.75;;;12.10;;
62796;SDS011;48839;48.546;-4.178;2023-03-01T14:36:25;22.98;;;13.07;;
62796;SDS011;48839;48.546;-4.178;2023-03-01T14:38:51;22.85;;;12.93;;
62796;SDS011;48839;48.546;-4.178;2023-03-01T14:41:21;19.58;;;12.20;;
62796;SDS011;48839;48.546;-4.178;2023-03-01T14:43:52;19.23;;;11.85;;
62796;SDS011;48839;48.546;-4.178;2023-03-01T14:46:24;21.60;;;11.75;;
62796;SDS011;48839;48.546;-4.178;2023-03-01T14:48:52;16.08;;;10.90;;
62796;SDS011;48839;48.546;-4.178;2023-03-01T14:51:18;14.52;;;10.13;;
62796;SDS011;48839;48.546;-4.178;2023-03-01T14:53:45;20.48;;;11.77;;
62796;SDS011;48839;48.546;-4.178;2023-03-01T14:56:14;17.02;;;11.02;;
62796;SDS011;48839;48.546;-4.178;2023-03-01T14:58:45;21.23;;;13.00;;
62796;SDS011;48839;48.546;-4.178;2023-03-01T15:01:16;18.88;;;12.48;;
62796;SDS011;48839;48.546;-4.178;2023-03-01T15:03:43;19.85;;;12.25;;
62796;SDS011;48839;48.546;-4.178;2023-03-01T15:06:10;18.75;;;12.50;;
62796;SDS011;48839;48.546;-4.178;2023-03-01T15:08:44;19.33;;;10.93;;
62796;SDS011;48839;48.546;-4.178;2023-03-01T15:11:21;18.23;;;11.30;;
62796;SDS011;48839;48.546;-4.178;2023-03-01T15:13:49;19.13;;;10.70;;
62796;SDS011;48839;48.546;-4.178;2023-03-01T15:16:19;18.27;;;12.30;;
62796;SDS011;48839;48.546;-4.178;2023-03-01T15:18:50;21.02;;;13.43;;
62796;SDS011;48839;48.546;-4.178;2023-03-01T15:23:47;18.45;;;11.75;;
62796;SDS011;48839;48.546;-4.178;2023-03-01T15:26:56;21.40;;;12.50;;
62796;SDS011;48839;48.546;-4.178;2023-03-01T15:29:03;23.38;;;12.20;;
62796;SDS011;48839;48.546;-4.178;2023-03-01T15:31:36;19.42;;;12.35;;
62796;SDS011;48839;48.546;-4.178;2023-03-01T15:37:36;21.77;;;12.38;;
62796;SDS011;48839;48.546;-4.178;2023-03-01T15:39:56;22.50;;;11.80;;
62796;SDS011;48839;48.546;-4.178;2023-03-01T15:45:10;20.38;;;11.77;;
62796;SDS011;48839;48.546;-4.178;2023-03-01T15:47:39;18.83;;;8.90;;
62796;SDS011;48839;48.546;-4.178;2023-03-01T15:50:11;16.58;;;9.30;;
62796;SDS011;48839;48.546;-4.178;2023-03-01T15:52:41;15.75;;;10.48;;
62796;SDS011;48839;48.546;-4.178;2023-03-01T15:55:27;17.15;;;10.18;;
62796;SDS011;48839;48.546;-4.178;2023-03-01T15:58:13;15.63;;;8.48;;
62796;SDS011;48839;48.546;-4.178;2023-03-01T16:00:39;16.42;;;9.45;;
62796;SDS011;48839;48.546;-4.178;2023-03-01T16:03:06;23.73;;;10.45;;
62796;SDS011;48839;48.546;-4.178;2023-03-01T16:05:34;15.77;;;10.18;;
62796;SDS011;48839;48.546;-4.178;2023-03-01T16:08:01;16.67;;;9.27;;
62796;SDS011;48839;48.546;-4.178;2023-03-01T16:10:27;15.90;;;9.13;;
62796;SDS011;48839;48.546;-4.178;2023-03-01T16:12:54;16.70;;;9.77;;
62796;SDS011;48839;48.546;-4.178;2023-03-01T16:15:21;11.98;;;8.70;;
62796;SDS011;48839;48.546;-4.178;2023-03-01T16:17:47;14.63;;;9.27;;
62796;SDS011;48839;48.546;-4.178;2023-03-01T16:20:13;17.83;;;9.13;;
62796;SDS011;48839;48.546;-4.178;2023-03-01T16:22:41;14.52;;;9.32;;
62796;SDS011;48839;48.546;-4.178;2023-03-01T16:25:08;16.60;;;9.52;;
62796;SDS011;48839;48.546;-4.178;2023-03-01T16:27:34;15.50;;;9.60;;
62796;SDS011;48839;48.546;-4.178;2023-03-01T16:30:00;23.63;;;10.50;;
62796;SDS011;48839;48.546;-4.178;2023-03-01T16:32:26;13.30;;;9.68;;
62796;SDS011;48839;48.546;-4.178;2023-03-01T16:34:54;17.83;;;9.98;;
62796;SDS011;48839;48.546;-4.178;2023-03-01T16:37:20;13.80;;;9.30;;